CGMAN YMML-YMHB
Flight info
| Callsign | CGMAN |
|---|---|
| Flight time | 0h 53m |
| Altitude | 31000 |
| Route | DCT ML H169 IRSOM V33 TASUM DCT |
| Aircraft | B738/M-V/N |
Departure
| Time | 2026-04-26 11:25 |
|---|---|
| Airport | Melbourne Airport (YMML) |
Arrival
| Time | 2026-04-26 12:19 |
|---|---|
| Airport | Hobart International Airport (YMHB) |
| Time | Latitude | Longitude | Altitude | Speed | Heading |
|---|---|---|---|---|---|
| 2026-04-26 10:44 | -37.67056 | 144.84723 | 401 ft | 0 kts | 170° |
| 2026-04-26 11:13 | -37.67041 | 144.84720 | 401 ft | 2 kts | 171° |
| 2026-04-26 11:13 | -37.67026 | 144.84717 | 401 ft | 2 kts | 171° |
| 2026-04-26 11:13 | -37.67012 | 144.84712 | 401 ft | 2 kts | 154° |
| 2026-04-26 11:13 | -37.66998 | 144.84701 | 401 ft | 2 kts | 152° |
| 2026-04-26 11:14 | -37.66982 | 144.84701 | 401 ft | 0 kts | 211° |
| 2026-04-26 11:14 | -37.66991 | 144.84697 | 401 ft | 2 kts | 218° |
| 2026-04-26 11:14 | -37.67002 | 144.84671 | 400 ft | 2 kts | 260° |
| 2026-04-26 11:14 | -37.67003 | 144.84665 | 400 ft | 0 kts | 263° |
| 2026-04-26 11:16 | -37.67003 | 144.84659 | 399 ft | 2 kts | 263° |
| 2026-04-26 11:16 | -37.67006 | 144.84625 | 398 ft | 5 kts | 263° |
| 2026-04-26 11:16 | -37.67012 | 144.84569 | 396 ft | 7 kts | 263° |
| 2026-04-26 11:16 | -37.67021 | 144.84491 | 392 ft | 10 kts | 256° |
| 2026-04-26 11:17 | -37.67048 | 144.84398 | 388 ft | 12 kts | 258° |
| 2026-04-26 11:17 | -37.67058 | 144.84296 | 385 ft | 9 kts | 276° |
| 2026-04-26 11:17 | -37.67018 | 144.84239 | 386 ft | 10 kts | 341° |
| 2026-04-26 11:17 | -37.66938 | 144.84221 | 388 ft | 11 kts | 351° |
| 2026-04-26 11:18 | -37.66872 | 144.84209 | 389 ft | 8 kts | 352° |
| 2026-04-26 11:18 | -37.66812 | 144.84198 | 390 ft | 10 kts | 351° |
| 2026-04-26 11:18 | -37.66724 | 144.84181 | 392 ft | 13 kts | 351° |
| 2026-04-26 11:18 | -37.66644 | 144.84166 | 394 ft | 10 kts | 352° |
| 2026-04-26 11:19 | -37.66565 | 144.84151 | 398 ft | 12 kts | 351° |
| 2026-04-26 11:19 | -37.66458 | 144.84131 | 402 ft | 18 kts | 351° |
| 2026-04-26 11:19 | -37.66322 | 144.84106 | 410 ft | 20 kts | 352° |
| 2026-04-26 11:19 | -37.66174 | 144.84079 | 416 ft | 20 kts | 351° |
| 2026-04-26 11:20 | -37.66032 | 144.84053 | 419 ft | 21 kts | 352° |
| 2026-04-26 11:20 | -37.65929 | 144.84033 | 421 ft | 21 kts | 351° |
| 2026-04-26 11:20 | -37.65745 | 144.83998 | 424 ft | 17 kts | 351° |
| 2026-04-26 11:20 | -37.65659 | 144.83983 | 426 ft | 0 kts | 352° |
| 2026-04-26 11:21 | -37.65659 | 144.83981 | 426 ft | 0 kts | 352° |
| 2026-04-26 11:21 | -37.65654 | 144.83981 | 427 ft | 3 kts | 351° |
| 2026-04-26 11:21 | -37.65603 | 144.83958 | 428 ft | 11 kts | 322° |
| 2026-04-26 11:22 | -37.65567 | 144.83870 | 430 ft | 9 kts | 275° |
| 2026-04-26 11:22 | -37.65571 | 144.83798 | 432 ft | 6 kts | 262° |
| 2026-04-26 11:22 | -37.65577 | 144.83746 | 433 ft | 5 kts | 262° |
| 2026-04-26 11:22 | -37.65582 | 144.83701 | 432 ft | 3 kts | 262° |
| 2026-04-26 11:23 | -37.65582 | 144.83699 | 432 ft | 0 kts | 262° |
| 2026-04-26 11:23 | -37.65583 | 144.83694 | 432 ft | 1 kts | 263° |
| 2026-04-26 11:23 | -37.65584 | 144.83681 | 432 ft | 4 kts | 263° |
| 2026-04-26 11:23 | -37.65589 | 144.83629 | 433 ft | 4 kts | 263° |
| 2026-04-26 11:24 | -37.65593 | 144.83589 | 434 ft | 7 kts | 258° |
| 2026-04-26 11:24 | -37.65656 | 144.83557 | 432 ft | 17 kts | 173° |
| 2026-04-26 11:24 | -37.65974 | 144.83615 | 423 ft | 81 kts | 172° |
| 2026-04-26 11:24 | -37.66674 | 144.83745 | 400 ft | 137 kts | 172° |
| 2026-04-26 11:25 | -37.67712 | 144.83942 | 394 ft | 179 kts | 172° |
| 2026-04-26 11:25 | -37.68904 | 144.84168 | 948 ft | 180 kts | 172° |
| 2026-04-26 11:25 | -37.70170 | 144.84374 | 1382 ft | 196 kts | 173° |
| 2026-04-26 11:25 | -37.71518 | 144.84598 | 1798 ft | 212 kts | 172° |
| 2026-04-26 11:26 | -37.72992 | 144.84874 | 2320 ft | 225 kts | 171° |
| 2026-04-26 11:26 | -37.74565 | 144.85197 | 2589 ft | 250 kts | 172° |
| 2026-04-26 11:26 | -37.76313 | 144.85506 | 3153 ft | 264 kts | 171° |
| 2026-04-26 11:26 | -37.78123 | 144.85858 | 3905 ft | 270 kts | 171° |
| 2026-04-26 11:27 | -37.80059 | 144.86224 | 4412 ft | 287 kts | 172° |
| 2026-04-26 11:27 | -37.82000 | 144.86577 | 5035 ft | 296 kts | 173° |
| 2026-04-26 11:27 | -37.84054 | 144.87022 | 5326 ft | 301 kts | 166° |
| 2026-04-26 11:27 | -37.86046 | 144.87845 | 6361 ft | 296 kts | 160° |
| 2026-04-26 11:28 | -37.87913 | 144.88797 | 7237 ft | 297 kts | 158° |
| 2026-04-26 11:28 | -37.89848 | 144.89828 | 8003 ft | 302 kts | 158° |
| 2026-04-26 11:28 | -37.91774 | 144.90852 | 8774 ft | 305 kts | 159° |
| 2026-04-26 11:28 | -37.93738 | 144.91876 | 9529 ft | 309 kts | 160° |
| 2026-04-26 11:29 | -37.95741 | 144.92906 | 10278 ft | 313 kts | 160° |
| 2026-04-26 11:29 | -37.97759 | 144.93939 | 10973 ft | 318 kts | 160° |
| 2026-04-26 11:29 | -37.99829 | 144.95000 | 11671 ft | 322 kts | 160° |
| 2026-04-26 11:29 | -38.01925 | 144.96074 | 12337 ft | 327 kts | 160° |
| 2026-04-26 11:30 | -38.04042 | 144.97162 | 12957 ft | 333 kts | 160° |
| 2026-04-26 11:30 | -38.05468 | 144.97894 | 13387 ft | 336 kts | 160° |
| 2026-04-26 11:30 | -38.08367 | 144.99385 | 14303 ft | 339 kts | 160° |
| 2026-04-26 11:30 | -38.10571 | 145.00522 | 14971 ft | 342 kts | 160° |
| 2026-04-26 11:31 | -38.12783 | 145.01660 | 15603 ft | 345 kts | 160° |
| 2026-04-26 11:31 | -38.15044 | 145.02826 | 16238 ft | 348 kts | 160° |
| 2026-04-26 11:31 | -38.17351 | 145.04016 | 16862 ft | 351 kts | 160° |
| 2026-04-26 11:31 | -38.19660 | 145.05206 | 17452 ft | 354 kts | 160° |
| 2026-04-26 11:32 | -38.22008 | 145.06418 | 18062 ft | 356 kts | 161° |
| 2026-04-26 11:32 | -38.24358 | 145.07629 | 18665 ft | 358 kts | 161° |
| 2026-04-26 11:32 | -38.26732 | 145.08856 | 19291 ft | 359 kts | 161° |
| 2026-04-26 11:32 | -38.29084 | 145.10074 | 19871 ft | 361 kts | 161° |
| 2026-04-26 11:33 | -38.31440 | 145.11291 | 20417 ft | 364 kts | 161° |
| 2026-04-26 11:33 | -38.33813 | 145.12518 | 20957 ft | 366 kts | 161° |
| 2026-04-26 11:33 | -38.36156 | 145.13733 | 21449 ft | 368 kts | 161° |
| 2026-04-26 11:33 | -38.38533 | 145.14966 | 21997 ft | 369 kts | 162° |
| 2026-04-26 11:34 | -38.40905 | 145.16196 | 22461 ft | 372 kts | 162° |
| 2026-04-26 11:34 | -38.43282 | 145.17432 | 23008 ft | 372 kts | 162° |
| 2026-04-26 11:34 | -38.45702 | 145.18687 | 23437 ft | 375 kts | 162° |
| 2026-04-26 11:34 | -38.48099 | 145.19936 | 23916 ft | 376 kts | 162° |
| 2026-04-26 11:35 | -38.50551 | 145.21211 | 24313 ft | 380 kts | 162° |
| 2026-04-26 11:35 | -38.53028 | 145.22433 | 24561 ft | 387 kts | 164° |
| 2026-04-26 11:35 | -38.55611 | 145.23593 | 24592 ft | 401 kts | 165° |
| 2026-04-26 11:35 | -38.58298 | 145.24747 | 24623 ft | 414 kts | 165° |
| 2026-04-26 11:36 | -38.61072 | 145.25923 | 24645 ft | 428 kts | 165° |
| 2026-04-26 11:36 | -38.63907 | 145.27135 | 24671 ft | 442 kts | 165° |
| 2026-04-26 11:36 | -38.66886 | 145.28420 | 24696 ft | 455 kts | 165° |
| 2026-04-26 11:36 | -38.69903 | 145.29733 | 24727 ft | 468 kts | 165° |
| 2026-04-26 11:37 | -38.73039 | 145.31107 | 24801 ft | 480 kts | 165° |
| 2026-04-26 11:37 | -38.76242 | 145.32516 | 25006 ft | 488 kts | 164° |
| 2026-04-26 11:37 | -38.79443 | 145.33931 | 25194 ft | 496 kts | 164° |
| 2026-04-26 11:37 | -38.82718 | 145.35384 | 25616 ft | 499 kts | 164° |
| 2026-04-26 11:38 | -38.85998 | 145.36844 | 26321 ft | 495 kts | 164° |
| 2026-04-26 11:38 | -38.89233 | 145.38287 | 26878 ft | 494 kts | 164° |
| 2026-04-26 11:38 | -38.92471 | 145.39732 | 27396 ft | 493 kts | 164° |
| 2026-04-26 11:38 | -38.95712 | 145.41177 | 27920 ft | 493 kts | 164° |
| 2026-04-26 11:39 | -38.98924 | 145.42610 | 28448 ft | 491 kts | 164° |
| 2026-04-26 11:39 | -39.02144 | 145.44046 | 28948 ft | 491 kts | 164° |
| 2026-04-26 11:39 | -39.05356 | 145.45479 | 29445 ft | 490 kts | 164° |
| 2026-04-26 11:39 | -39.08556 | 145.46907 | 29885 ft | 489 kts | 164° |
| 2026-04-26 11:40 | -39.11775 | 145.48346 | 30370 ft | 488 kts | 164° |
| 2026-04-26 11:40 | -39.14958 | 145.49770 | 30849 ft | 486 kts | 163° |
| 2026-04-26 11:40 | -39.18155 | 145.51201 | 31157 ft | 488 kts | 164° |
| 2026-04-26 11:40 | -39.21373 | 145.52641 | 31188 ft | 490 kts | 164° |
| 2026-04-26 11:42 | -39.47447 | 145.64368 | 31194 ft | 499 kts | 164° |
| 2026-04-26 11:43 | -39.53975 | 145.67319 | 31190 ft | 499 kts | 163° |
| 2026-04-26 11:43 | -39.60536 | 145.70291 | 31189 ft | 500 kts | 163° |
| 2026-04-26 11:44 | -39.67074 | 145.73261 | 31186 ft | 500 kts | 163° |
| 2026-04-26 11:44 | -39.73676 | 145.76265 | 31184 ft | 500 kts | 163° |
| 2026-04-26 11:45 | -39.80199 | 145.79237 | 31184 ft | 502 kts | 163° |
| 2026-04-26 11:45 | -39.86806 | 145.82254 | 31185 ft | 502 kts | 163° |
| 2026-04-26 11:46 | -39.93350 | 145.85248 | 31179 ft | 502 kts | 163° |
| 2026-04-26 11:46 | -39.99958 | 145.88280 | 31175 ft | 501 kts | 163° |
| 2026-04-26 11:47 | -40.06491 | 145.91295 | 31175 ft | 502 kts | 163° |
| 2026-04-26 11:47 | -40.13096 | 145.94362 | 31176 ft | 501 kts | 163° |
| 2026-04-26 11:48 | -40.19642 | 145.97407 | 31169 ft | 502 kts | 163° |
| 2026-04-26 11:48 | -40.26218 | 146.00475 | 31171 ft | 502 kts | 163° |
| 2026-04-26 11:49 | -40.32780 | 146.03536 | 31167 ft | 503 kts | 163° |
| 2026-04-26 11:49 | -40.39373 | 146.06613 | 31170 ft | 503 kts | 163° |
| 2026-04-26 11:50 | -40.45985 | 146.09711 | 31164 ft | 503 kts | 163° |
| 2026-04-26 11:50 | -40.52544 | 146.12791 | 31167 ft | 503 kts | 163° |
| 2026-04-26 11:51 | -40.59115 | 146.15884 | 31164 ft | 502 kts | 163° |
| 2026-04-26 11:51 | -40.65678 | 146.18977 | 31160 ft | 503 kts | 163° |
| 2026-04-26 11:52 | -40.72265 | 146.22089 | 31160 ft | 502 kts | 163° |
| 2026-04-26 11:52 | -40.78855 | 146.25207 | 31159 ft | 504 kts | 163° |
| 2026-04-26 11:53 | -40.85474 | 146.28348 | 31160 ft | 504 kts | 163° |
| 2026-04-26 11:54 | -40.95353 | 146.33046 | 31165 ft | 506 kts | 163° |
| 2026-04-26 11:54 | -41.01710 | 146.36078 | 31169 ft | 505 kts | 163° |
| 2026-04-26 11:55 | -41.08219 | 146.39186 | 31166 ft | 506 kts | 163° |
| 2026-04-26 11:55 | -41.14768 | 146.42322 | 31164 ft | 506 kts | 163° |
| 2026-04-26 11:56 | -41.21256 | 146.45830 | 31164 ft | 507 kts | 159° |
| 2026-04-26 11:56 | -41.27613 | 146.49832 | 31162 ft | 510 kts | 157° |
| 2026-04-26 11:57 | -41.33905 | 146.53926 | 31159 ft | 505 kts | 157° |
| 2026-04-26 11:57 | -41.40131 | 146.57947 | 31164 ft | 503 kts | 157° |
| 2026-04-26 11:58 | -41.46401 | 146.61957 | 31159 ft | 501 kts | 158° |
| 2026-04-26 11:58 | -41.52577 | 146.65891 | 30063 ft | 502 kts | 157° |
| 2026-04-26 11:58 | -41.55678 | 146.67859 | 28904 ft | 509 kts | 157° |
| 2026-04-26 11:59 | -41.58861 | 146.69882 | 28124 ft | 507 kts | 157° |
| 2026-04-26 11:59 | -41.61964 | 146.71858 | 27293 ft | 506 kts | 157° |
| 2026-04-26 11:59 | -41.65115 | 146.73869 | 26535 ft | 503 kts | 156° |
| 2026-04-26 11:59 | -41.68195 | 146.75842 | 25690 ft | 502 kts | 156° |
| 2026-04-26 12:00 | -41.71228 | 146.77800 | 25142 ft | 495 kts | 156° |
| 2026-04-26 12:00 | -41.74280 | 146.79778 | 24518 ft | 489 kts | 156° |
| 2026-04-26 12:00 | -41.77338 | 146.81761 | 23836 ft | 484 kts | 156° |
| 2026-04-26 12:00 | -41.80387 | 146.83743 | 23216 ft | 479 kts | 156° |
| 2026-04-26 12:01 | -41.83337 | 146.85660 | 22578 ft | 475 kts | 156° |
| 2026-04-26 12:01 | -41.86240 | 146.87546 | 21865 ft | 473 kts | 156° |
| 2026-04-26 12:01 | -41.89159 | 146.89445 | 21243 ft | 468 kts | 156° |
| 2026-04-26 12:01 | -41.92112 | 146.91370 | 20542 ft | 465 kts | 156° |
| 2026-04-26 12:02 | -41.95040 | 146.93239 | 19871 ft | 461 kts | 159° |
| 2026-04-26 12:02 | -41.98010 | 146.94568 | 19228 ft | 454 kts | 169° |
| 2026-04-26 12:02 | -42.00995 | 146.95424 | 18734 ft | 445 kts | 173° |
| 2026-04-26 12:02 | -42.03946 | 146.96107 | 18252 ft | 437 kts | 174° |
| 2026-04-26 12:03 | -42.06917 | 146.96747 | 17761 ft | 431 kts | 175° |
| 2026-04-26 12:03 | -42.09884 | 146.97383 | 17264 ft | 425 kts | 175° |
| 2026-04-26 12:03 | -42.12689 | 146.97989 | 16787 ft | 419 kts | 175° |
| 2026-04-26 12:03 | -42.15495 | 146.98602 | 16306 ft | 414 kts | 175° |
| 2026-04-26 12:04 | -42.18338 | 146.99229 | 15810 ft | 409 kts | 175° |
| 2026-04-26 12:04 | -42.21120 | 146.99844 | 15320 ft | 404 kts | 175° |
| 2026-04-26 12:04 | -42.23802 | 147.00446 | 14796 ft | 394 kts | 175° |
| 2026-04-26 12:04 | -42.26472 | 147.01054 | 14185 ft | 385 kts | 175° |
| 2026-04-26 12:05 | -42.29071 | 147.01659 | 13574 ft | 378 kts | 175° |
| 2026-04-26 12:05 | -42.31619 | 147.02255 | 12956 ft | 371 kts | 175° |
| 2026-04-26 12:05 | -42.34116 | 147.02849 | 12340 ft | 365 kts | 175° |
| 2026-04-26 12:05 | -42.36548 | 147.03444 | 11743 ft | 359 kts | 175° |
| 2026-04-26 12:06 | -42.38973 | 147.04038 | 11367 ft | 349 kts | 178° |
| 2026-04-26 12:06 | -42.41285 | 147.04027 | 11086 ft | 328 kts | 199° |
| 2026-04-26 12:06 | -42.43270 | 147.02966 | 10839 ft | 303 kts | 222° |
| 2026-04-26 12:06 | -42.44646 | 147.01047 | 10732 ft | 274 kts | 246° |
| 2026-04-26 12:07 | -42.45175 | 146.98756 | 10655 ft | 248 kts | 272° |
| 2026-04-26 12:07 | -42.44819 | 146.96584 | 10580 ft | 232 kts | 300° |
| 2026-04-26 12:07 | -42.43724 | 146.95096 | 10535 ft | 227 kts | 327° |
| 2026-04-26 12:07 | -42.42209 | 146.94647 | 10463 ft | 233 kts | 355° |
| 2026-04-26 12:08 | -42.40662 | 146.95389 | 10380 ft | 246 kts | 26° |
| 2026-04-26 12:08 | -42.39545 | 146.97171 | 10303 ft | 259 kts | 57° |
| 2026-04-26 12:08 | -42.39199 | 146.99519 | 10234 ft | 263 kts | 91° |
| 2026-04-26 12:08 | -42.39728 | 147.01868 | 10123 ft | 270 kts | 121° |
| 2026-04-26 12:09 | -42.40899 | 147.03734 | 9792 ft | 271 kts | 143° |
| 2026-04-26 12:09 | -42.42314 | 147.05220 | 9429 ft | 263 kts | 148° |
| 2026-04-26 12:09 | -42.43744 | 147.06578 | 9064 ft | 257 kts | 152° |
| 2026-04-26 12:09 | -42.45207 | 147.07884 | 8684 ft | 252 kts | 152° |
| 2026-04-26 12:10 | -42.46661 | 147.09149 | 8237 ft | 251 kts | 153° |
| 2026-04-26 12:10 | -42.48141 | 147.10384 | 7768 ft | 250 kts | 155° |
| 2026-04-26 12:10 | -42.49633 | 147.11565 | 7377 ft | 246 kts | 156° |
| 2026-04-26 12:10 | -42.51095 | 147.12660 | 7021 ft | 241 kts | 158° |
| 2026-04-26 12:11 | -42.52544 | 147.13741 | 6626 ft | 240 kts | 156° |
| 2026-04-26 12:11 | -42.53972 | 147.14856 | 6237 ft | 240 kts | 155° |
| 2026-04-26 12:11 | -42.55350 | 147.16034 | 5934 ft | 238 kts | 150° |
| 2026-04-26 12:11 | -42.56676 | 147.17328 | 5640 ft | 236 kts | 149° |
| 2026-04-26 12:12 | -42.57979 | 147.18630 | 5512 ft | 231 kts | 148° |
| 2026-04-26 12:12 | -42.59238 | 147.19881 | 5500 ft | 225 kts | 148° |
| 2026-04-26 12:12 | -42.60482 | 147.21141 | 5464 ft | 226 kts | 147° |
| 2026-04-26 12:12 | -42.61313 | 147.22009 | 5476 ft | 226 kts | 146° |
| 2026-04-26 12:13 | -42.62898 | 147.23793 | 5531 ft | 216 kts | 144° |
| 2026-04-26 12:13 | -42.63977 | 147.25142 | 5494 ft | 213 kts | 140° |
| 2026-04-26 12:13 | -42.65039 | 147.26533 | 5280 ft | 210 kts | 141° |
| 2026-04-26 12:13 | -42.66081 | 147.27878 | 4947 ft | 207 kts | 141° |
| 2026-04-26 12:14 | -42.67124 | 147.29178 | 4621 ft | 201 kts | 141° |
| 2026-04-26 12:14 | -42.68148 | 147.30453 | 4241 ft | 199 kts | 141° |
| 2026-04-26 12:14 | -42.69145 | 147.31720 | 3875 ft | 194 kts | 138° |
| 2026-04-26 12:14 | -42.70075 | 147.32965 | 3607 ft | 186 kts | 138° |
| 2026-04-26 12:15 | -42.70972 | 147.34168 | 3374 ft | 176 kts | 139° |
| 2026-04-26 12:15 | -42.71835 | 147.35306 | 3123 ft | 176 kts | 139° |
| 2026-04-26 12:15 | -42.72714 | 147.36467 | 2886 ft | 176 kts | 138° |
| 2026-04-26 12:15 | -42.73582 | 147.37631 | 2642 ft | 175 kts | 137° |
| 2026-04-26 12:16 | -42.74435 | 147.38789 | 2393 ft | 174 kts | 137° |
| 2026-04-26 12:16 | -42.75280 | 147.39926 | 2152 ft | 170 kts | 136° |
| 2026-04-26 12:16 | -42.76111 | 147.41048 | 1918 ft | 168 kts | 137° |
| 2026-04-26 12:16 | -42.76941 | 147.42168 | 1705 ft | 167 kts | 136° |
| 2026-04-26 12:17 | -42.77755 | 147.43268 | 1488 ft | 164 kts | 137° |
| 2026-04-26 12:17 | -42.78573 | 147.44357 | 1257 ft | 162 kts | 136° |
| 2026-04-26 12:17 | -42.79375 | 147.45438 | 1041 ft | 160 kts | 136° |
| 2026-04-26 12:17 | -42.80152 | 147.46486 | 827 ft | 157 kts | 135° |
| 2026-04-26 12:18 | -42.80932 | 147.47546 | 597 ft | 156 kts | 134° |
| 2026-04-26 12:18 | -42.81692 | 147.48584 | 379 ft | 155 kts | 135° |
| 2026-04-26 12:18 | -42.82462 | 147.49615 | 161 ft | 154 kts | 135° |
| 2026-04-26 12:18 | -42.83198 | 147.50609 | 22 ft | 141 kts | 135° |
| 2026-04-26 12:19 | -42.83680 | 147.51268 | 23 ft | 58 kts | 135° |
| 2026-04-26 12:19 | -42.83938 | 147.51622 | 25 ft | 40 kts | 135° |
| 2026-04-26 12:19 | -42.84110 | 147.51854 | 27 ft | 33 kts | 135° |
| 2026-04-26 12:19 | -42.84245 | 147.52031 | 29 ft | 17 kts | 140° |
| 2026-04-26 12:20 | -42.84292 | 147.52066 | 29 ft | 5 kts | 161° |
| 2026-04-26 12:20 | -42.84319 | 147.52090 | 29 ft | 4 kts | 101° |
| 2026-04-26 12:20 | -42.84282 | 147.52086 | 29 ft | 10 kts | 319° |
| 2026-04-26 12:20 | -42.84222 | 147.52002 | 29 ft | 14 kts | 315° |
| 2026-04-26 12:21 | -42.84141 | 147.51894 | 27 ft | 18 kts | 316° |
| 2026-04-26 12:21 | -42.84041 | 147.51759 | 26 ft | 20 kts | 315° |
| 2026-04-26 12:21 | -42.83943 | 147.51625 | 25 ft | 19 kts | 315° |
| 2026-04-26 12:21 | -42.83846 | 147.51494 | 23 ft | 19 kts | 315° |
| 2026-04-26 12:22 | -42.83775 | 147.51395 | 23 ft | 10 kts | 307° |
| 2026-04-26 12:22 | -42.83780 | 147.51309 | 23 ft | 9 kts | 232° |
| 2026-04-26 12:22 | -42.83820 | 147.51254 | 24 ft | 6 kts | 225° |
| 2026-04-26 12:22 | -42.83852 | 147.51209 | 26 ft | 7 kts | 233° |
| 2026-04-26 12:23 | -42.83850 | 147.51138 | 26 ft | 10 kts | 300° |
| 2026-04-26 12:23 | -42.83789 | 147.51047 | 25 ft | 14 kts | 315° |
| 2026-04-26 12:23 | -42.83718 | 147.50952 | 25 ft | 12 kts | 315° |
| 2026-04-26 12:23 | -42.83677 | 147.50876 | 26 ft | 8 kts | 280° |
| 2026-04-26 12:24 | -42.83695 | 147.50812 | 26 ft | 6 kts | 242° |
| 2026-04-26 12:24 | -42.83688 | 147.50748 | 26 ft | 7 kts | 300° |
| 2026-04-26 12:24 | -42.83694 | 147.50691 | 26 ft | 5 kts | 232° |
| 2026-04-26 12:25 | -42.83710 | 147.50668 | 27 ft | 0 kts | 226° |